sensor_id;sensor_type;location;lat;lon;timestamp;P1;durP1;ratioP1;P2;durP2;ratioP2
26953;SDS011;14508;50.924;11.600;2022-07-22T00:02:24;8.95;;;4.97;;
26953;SDS011;14508;50.924;11.600;2022-07-22T00:04:51;7.03;;;5.00;;
26953;SDS011;14508;50.924;11.600;2022-07-22T00:07:18;9.05;;;5.18;;
26953;SDS011;14508;50.924;11.600;2022-07-22T00:09:45;7.70;;;5.13;;
26953;SDS011;14508;50.924;11.600;2022-07-22T00:12:12;7.43;;;5.20;;
26953;SDS011;14508;50.924;11.600;2022-07-22T00:14:38;7.88;;;5.53;;
26953;SDS011;14508;50.924;11.600;2022-07-22T00:17:05;11.98;;;5.35;;
26953;SDS011;14508;50.924;11.600;2022-07-22T00:19:32;7.97;;;5.72;;
26953;SDS011;14508;50.924;11.600;2022-07-22T00:21:59;9.07;;;5.93;;
26953;SDS011;14508;50.924;11.600;2022-07-22T00:24:27;12.43;;;5.90;;
26953;SDS011;14508;50.924;11.600;2022-07-22T00:26:54;8.75;;;4.75;;
26953;SDS011;14508;50.924;11.600;2022-07-22T00:29:21;12.63;;;5.45;;
26953;SDS011;14508;50.924;11.600;2022-07-22T00:31:47;12.43;;;5.55;;
26953;SDS011;14508;50.924;11.600;2022-07-22T00:34:14;8.90;;;6.00;;
26953;SDS011;14508;50.924;11.600;2022-07-22T00:36:41;9.95;;;5.38;;
26953;SDS011;14508;50.924;11.600;2022-07-22T00:39:07;11.43;;;6.00;;
26953;SDS011;14508;50.924;11.600;2022-07-22T00:41:35;8.23;;;5.57;;
26953;SDS011;14508;50.924;11.600;2022-07-22T00:44:04;10.05;;;5.05;;
26953;SDS011;14508;50.924;11.600;2022-07-22T00:46:33;11.93;;;6.15;;
26953;SDS011;14508;50.924;11.600;2022-07-22T00:49:01;7.20;;;5.97;;
26953;SDS011;14508;50.924;11.600;2022-07-22T00:51:30;8.95;;;5.82;;
26953;SDS011;14508;50.924;11.600;2022-07-22T00:53:57;8.65;;;5.35;;
26953;SDS011;14508;50.924;11.600;2022-07-22T00:56:25;7.65;;;5.47;;
26953;SDS011;14508;50.924;11.600;2022-07-22T00:58:55;9.23;;;5.55;;
26953;SDS011;14508;50.924;11.600;2022-07-22T01:01:23;7.10;;;6.03;;
26953;SDS011;14508;50.924;11.600;2022-07-22T01:03:50;9.13;;;5.80;;
26953;SDS011;14508;50.924;11.600;2022-07-22T01:06:17;8.73;;;5.75;;
26953;SDS011;14508;50.924;11.600;2022-07-22T01:08:44;9.18;;;5.82;;
26953;SDS011;14508;50.924;11.600;2022-07-22T01:11:11;8.43;;;5.45;;
26953;SDS011;14508;50.924;11.600;2022-07-22T01:13:40;8.90;;;5.35;;
26953;SDS011;14508;50.924;11.600;2022-07-22T01:16:09;7.18;;;5.63;;
26953;SDS011;14508;50.924;11.600;2022-07-22T01:18:38;8.35;;;6.15;;
26953;SDS011;14508;50.924;11.600;2022-07-22T01:21:07;7.55;;;5.45;;
26953;SDS011;14508;50.924;11.600;2022-07-22T01:23:34;10.10;;;5.68;;
26953;SDS011;14508;50.924;11.600;2022-07-22T01:26:02;11.77;;;5.45;;
26953;SDS011;14508;50.924;11.600;2022-07-22T01:28:29;7.45;;;5.80;;
26953;SDS011;14508;50.924;11.600;2022-07-22T01:30:56;12.13;;;5.78;;
26953;SDS011;14508;50.924;11.600;2022-07-22T01:33:23;10.00;;;5.95;;
26953;SDS011;14508;50.924;11.600;2022-07-22T01:35:50;8.93;;;6.13;;
26953;SDS011;14508;50.924;11.600;2022-07-22T01:38:19;10.57;;;6.15;;
26953;SDS011;14508;50.924;11.600;2022-07-22T01:40:46;7.97;;;5.90;;
26953;SDS011;14508;50.924;11.600;2022-07-22T01:43:13;10.98;;;6.40;;
26953;SDS011;14508;50.924;11.600;2022-07-22T01:45:43;10.20;;;6.05;;
26953;SDS011;14508;50.924;11.600;2022-07-22T01:48:11;8.55;;;5.50;;
26953;SDS011;14508;50.924;11.600;2022-07-22T01:50:39;9.82;;;6.10;;
26953;SDS011;14508;50.924;11.600;2022-07-22T01:53:06;8.48;;;5.57;;
26953;SDS011;14508;50.924;11.600;2022-07-22T01:55:35;8.18;;;5.55;;
26953;SDS011;14508;50.924;11.600;2022-07-22T01:58:02;9.40;;;5.75;;
26953;SDS011;14508;50.924;11.600;2022-07-22T02:00:32;13.07;;;6.35;;
26953;SDS011;14508;50.924;11.600;2022-07-22T02:03:00;9.68;;;5.90;;
26953;SDS011;14508;50.924;11.600;2022-07-22T02:05:27;7.65;;;5.97;;
26953;SDS011;14508;50.924;11.600;2022-07-22T02:07:59;7.18;;;5.93;;
26953;SDS011;14508;50.924;11.600;2022-07-22T02:10:29;9.55;;;6.40;;
26953;SDS011;14508;50.924;11.600;2022-07-22T02:12:59;7.70;;;5.43;;
26953;SDS011;14508;50.924;11.600;2022-07-22T02:15:26;8.43;;;5.63;;
26953;SDS011;14508;50.924;11.600;2022-07-22T02:17:56;9.43;;;6.05;;
26953;SDS011;14508;50.924;11.600;2022-07-22T02:20:22;9.23;;;5.93;;
26953;SDS011;14508;50.924;11.600;2022-07-22T02:22:50;9.40;;;5.38;;
26953;SDS011;14508;50.924;11.600;2022-07-22T02:25:17;9.07;;;5.30;;
26953;SDS011;14508;50.924;11.600;2022-07-22T02:27:44;8.45;;;5.93;;
26953;SDS011;14508;50.924;11.600;2022-07-22T02:30:12;10.57;;;6.50;;
26953;SDS011;14508;50.924;11.600;2022-07-22T02:32:39;13.75;;;5.70;;
26953;SDS011;14508;50.924;11.600;2022-07-22T02:35:06;9.05;;;5.95;;
26953;SDS011;14508;50.924;11.600;2022-07-22T02:37:33;8.43;;;6.00;;
26953;SDS011;14508;50.924;11.600;2022-07-22T02:40:02;9.73;;;6.22;;
26953;SDS011;14508;50.924;11.600;2022-07-22T02:42:29;9.77;;;7.03;;
26953;SDS011;14508;50.924;11.600;2022-07-22T02:44:56;10.43;;;6.63;;
26953;SDS011;14508;50.924;11.600;2022-07-22T02:47:24;11.23;;;6.35;;
26953;SDS011;14508;50.924;11.600;2022-07-22T02:49:52;10.15;;;6.18;;
26953;SDS011;14508;50.924;11.600;2022-07-22T02:52:19;9.38;;;6.85;;
26953;SDS011;14508;50.924;11.600;2022-07-22T02:54:46;8.48;;;5.65;;
26953;SDS011;14508;50.924;11.600;2022-07-22T02:57:12;9.57;;;6.30;;
26953;SDS011;14508;50.924;11.600;2022-07-22T02:59:39;9.82;;;6.35;;
26953;SDS011;14508;50.924;11.600;2022-07-22T03:02:06;9.15;;;6.18;;
26953;SDS011;14508;50.924;11.600;2022-07-22T03:04:34;9.70;;;6.65;;
26953;SDS011;14508;50.924;11.600;2022-07-22T03:07:01;10.25;;;6.28;;
26953;SDS011;14508;50.924;11.600;2022-07-22T03:09:29;11.85;;;5.88;;
26953;SDS011;14508;50.924;11.600;2022-07-22T03:11:56;12.02;;;7.10;;
26953;SDS011;14508;50.924;11.600;2022-07-22T03:14:23;8.70;;;6.15;;
26953;SDS011;14508;50.924;11.600;2022-07-22T03:16:49;10.25;;;6.57;;
26953;SDS011;14508;50.924;11.600;2022-07-22T03:19:16;11.05;;;6.78;;
26953;SDS011;14508;50.924;11.600;2022-07-22T03:21:48;10.60;;;6.53;;
26953;SDS011;14508;50.924;11.600;2022-07-22T03:24:15;12.95;;;6.18;;
26953;SDS011;14508;50.924;11.600;2022-07-22T03:26:42;8.73;;;6.13;;
26953;SDS011;14508;50.924;11.600;2022-07-22T03:29:08;11.45;;;6.30;;
26953;SDS011;14508;50.924;11.600;2022-07-22T03:31:35;8.73;;;6.18;;
26953;SDS011;14508;50.924;11.600;2022-07-22T03:34:03;8.98;;;6.05;;
26953;SDS011;14508;50.924;11.600;2022-07-22T03:36:34;9.00;;;5.93;;
26953;SDS011;14508;50.924;11.600;2022-07-22T03:39:02;10.85;;;5.88;;
26953;SDS011;14508;50.924;11.600;2022-07-22T03:41:29;11.70;;;5.72;;
26953;SDS011;14508;50.924;11.600;2022-07-22T03:43:56;9.45;;;5.13;;
26953;SDS011;14508;50.924;11.600;2022-07-22T03:46:22;8.40;;;5.97;;
26953;SDS011;14508;50.924;11.600;2022-07-22T03:48:49;8.75;;;5.20;;
26953;SDS011;14508;50.924;11.600;2022-07-22T03:51:16;7.20;;;5.30;;
26953;SDS011;14508;50.924;11.600;2022-07-22T03:53:43;9.32;;;4.78;;
26953;SDS011;14508;50.924;11.600;2022-07-22T03:56:12;7.18;;;4.60;;
26953;SDS011;14508;50.924;11.600;2022-07-22T03:58:39;8.45;;;5.00;;
26953;SDS011;14508;50.924;11.600;2022-07-22T04:01:05;10.60;;;5.25;;
26953;SDS011;14508;50.924;11.600;2022-07-22T04:03:32;14.98;;;6.05;;
26953;SDS011;14508;50.924;11.600;2022-07-22T04:06:14;7.72;;;4.38;;
26953;SDS011;14508;50.924;11.600;2022-07-22T04:08:47;6.82;;;4.28;;
26953;SDS011;14508;50.924;11.600;2022-07-22T04:11:15;5.25;;;3.97;;
26953;SDS011;14508;50.924;11.600;2022-07-22T04:13:41;6.35;;;4.05;;
26953;SDS011;14508;50.924;11.600;2022-07-22T04:16:08;7.75;;;4.35;;
26953;SDS011;14508;50.924;11.600;2022-07-22T04:18:37;5.45;;;3.95;;
26953;SDS011;14508;50.924;11.600;2022-07-22T04:21:04;7.65;;;4.15;;
26953;SDS011;14508;50.924;11.600;2022-07-22T04:23:34;6.18;;;3.60;;
26953;SDS011;14508;50.924;11.600;2022-07-22T04:26:16;7.32;;;3.78;;
26953;SDS011;14508;50.924;11.600;2022-07-22T04:28:43;6.35;;;3.78;;
26953;SDS011;14508;50.924;11.600;2022-07-22T04:31:10;9.77;;;3.97;;
26953;SDS011;14508;50.924;11.600;2022-07-22T04:33:38;6.00;;;3.60;;
26953;SDS011;14508;50.924;11.600;2022-07-22T04:36:05;5.75;;;3.20;;
26953;SDS011;14508;50.924;11.600;2022-07-22T04:38:33;5.95;;;4.03;;
26953;SDS011;14508;50.924;11.600;2022-07-22T04:41:03;7.47;;;3.58;;
26953;SDS011;14508;50.924;11.600;2022-07-22T04:43:31;5.65;;;3.42;;
26953;SDS011;14508;50.924;11.600;2022-07-22T04:45:57;4.75;;;3.00;;
26953;SDS011;14508;50.924;11.600;2022-07-22T04:48:28;3.90;;;2.95;;
26953;SDS011;14508;50.924;11.600;2022-07-22T04:50:57;7.20;;;3.58;;
26953;SDS011;14508;50.924;11.600;2022-07-22T04:53:25;5.70;;;3.20;;
26953;SDS011;14508;50.924;11.600;2022-07-22T04:55:51;5.80;;;3.53;;
26953;SDS011;14508;50.924;11.600;2022-07-22T04:58:18;3.97;;;3.20;;
26953;SDS011;14508;50.924;11.600;2022-07-22T05:00:47;4.32;;;3.53;;
26953;SDS011;14508;50.924;11.600;2022-07-22T05:03:14;3.90;;;2.92;;
26953;SDS011;14508;50.924;11.600;2022-07-22T05:05:42;12.93;;;4.10;;
26953;SDS011;14508;50.924;11.600;2022-07-22T05:08:10;4.25;;;2.78;;
26953;SDS011;14508;50.924;11.600;2022-07-22T05:10:38;5.32;;;3.60;;
26953;SDS011;14508;50.924;11.600;2022-07-22T05:13:05;7.22;;;3.72;;
26953;SDS011;14508;50.924;11.600;2022-07-22T05:15:33;5.13;;;3.67;;
26953;SDS011;14508;50.924;11.600;2022-07-22T05:18:01;5.80;;;4.15;;
26953;SDS011;14508;50.924;11.600;2022-07-22T05:20:31;5.72;;;2.88;;
26953;SDS011;14508;50.924;11.600;2022-07-22T05:22:57;6.45;;;4.05;;
26953;SDS011;14508;50.924;11.600;2022-07-22T05:25:27;3.45;;;3.03;;
26953;SDS011;14508;50.924;11.600;2022-07-22T05:27:54;4.82;;;3.42;;
26953;SDS011;14508;50.924;11.600;2022-07-22T05:30:31;6.95;;;3.90;;
26953;SDS011;14508;50.924;11.600;2022-07-22T05:32:58;15.88;;;4.75;;
26953;SDS011;14508;50.924;11.600;2022-07-22T05:36:05;8.60;;;3.25;;
26953;SDS011;14508;50.924;11.600;2022-07-22T05:38:38;4.65;;;3.60;;
26953;SDS011;14508;50.924;11.600;2022-07-22T05:41:06;7.50;;;3.55;;
26953;SDS011;14508;50.924;11.600;2022-07-22T05:43:33;5.43;;;2.92;;
26953;SDS011;14508;50.924;11.600;2022-07-22T05:46:02;5.22;;;3.05;;
26953;SDS011;14508;50.924;11.600;2022-07-22T05:48:30;7.10;;;3.15;;
26953;SDS011;14508;50.924;11.600;2022-07-22T05:50:56;7.10;;;3.22;;
26953;SDS011;14508;50.924;11.600;2022-07-22T05:53:25;5.40;;;3.70;;
26953;SDS011;14508;50.924;11.600;2022-07-22T05:55:52;6.00;;;3.55;;
26953;SDS011;14508;50.924;11.600;2022-07-22T05:58:19;7.15;;;3.17;;
26953;SDS011;14508;50.924;11.600;2022-07-22T06:00:45;9.13;;;3.83;;
26953;SDS011;14508;50.924;11.600;2022-07-22T06:03:12;6.13;;;3.55;;
26953;SDS011;14508;50.924;11.600;2022-07-22T06:05:39;5.75;;;3.55;;
26953;SDS011;14508;50.924;11.600;2022-07-22T06:08:08;5.10;;;3.55;;
26953;SDS011;14508;50.924;11.600;2022-07-22T06:10:42;8.93;;;4.00;;
26953;SDS011;14508;50.924;11.600;2022-07-22T06:13:09;7.28;;;3.78;;
26953;SDS011;14508;50.924;11.600;2022-07-22T06:15:38;11.00;;;4.95;;
26953;SDS011;14508;50.924;11.600;2022-07-22T06:18:05;5.28;;;3.72;;
26953;SDS011;14508;50.924;11.600;2022-07-22T06:20:31;7.28;;;3.00;;
26953;SDS011;14508;50.924;11.600;2022-07-22T06:22:58;3.80;;;2.80;;
26953;SDS011;14508;50.924;11.600;2022-07-22T06:25:25;4.97;;;2.40;;
26953;SDS011;14508;50.924;11.600;2022-07-22T06:27:53;7.25;;;2.15;;
26953;SDS011;14508;50.924;11.600;2022-07-22T06:30:20;3.15;;;1.92;;
26953;SDS011;14508;50.924;11.600;2022-07-22T06:32:47;3.15;;;1.90;;
26953;SDS011;14508;50.924;11.600;2022-07-22T06:35:14;2.25;;;1.77;;
26953;SDS011;14508;50.924;11.600;2022-07-22T06:37:41;4.22;;;2.05;;
26953;SDS011;14508;50.924;11.600;2022-07-22T06:40:08;3.95;;;2.05;;
26953;SDS011;14508;50.924;11.600;2022-07-22T06:43:06;7.05;;;2.13;;
26953;SDS011;14508;50.924;11.600;2022-07-22T06:45:52;2.33;;;1.70;;
26953;SDS011;14508;50.924;11.600;2022-07-22T06:48:29;1.92;;;1.38;;
26953;SDS011;14508;50.924;11.600;2022-07-22T06:50:55;2.47;;;1.40;;
26953;SDS011;14508;50.924;11.600;2022-07-22T06:53:23;5.00;;;2.17;;
26953;SDS011;14508;50.924;11.600;2022-07-22T06:55:50;2.70;;;1.60;;
26953;SDS011;14508;50.924;11.600;2022-07-22T06:58:18;2.65;;;1.30;;
26953;SDS011;14508;50.924;11.600;2022-07-22T07:00:45;3.58;;;1.77;;
26953;SDS011;14508;50.924;11.600;2022-07-22T07:03:29;2.05;;;1.58;;
26953;SDS011;14508;50.924;11.600;2022-07-22T07:05:59;12.90;;;1.98;;
26953;SDS011;14508;50.924;11.600;2022-07-22T07:08:35;2.63;;;1.65;;
26953;SDS011;14508;50.924;11.600;2022-07-22T07:43:52;1.90;;;1.65;;
26953;SDS011;14508;50.924;11.600;2022-07-22T07:46:19;2.75;;;1.70;;
26953;SDS011;14508;50.924;11.600;2022-07-22T07:48:45;5.00;;;1.88;;
26953;SDS011;14508;50.924;11.600;2022-07-22T07:51:14;2.70;;;1.80;;
26953;SDS011;14508;50.924;11.600;2022-07-22T07:53:41;2.20;;;2.00;;
26953;SDS011;14508;50.924;11.600;2022-07-22T07:56:07;2.10;;;1.77;;
26953;SDS011;14508;50.924;11.600;2022-07-22T07:58:33;2.75;;;2.05;;
26953;SDS011;14508;50.924;11.600;2022-07-22T08:04:17;4.77;;;2.07;;
26953;SDS011;14508;50.924;11.600;2022-07-22T08:06:44;6.18;;;1.88;;
26953;SDS011;14508;50.924;11.600;2022-07-22T08:09:10;4.45;;;1.95;;
26953;SDS011;14508;50.924;11.600;2022-07-22T08:11:40;4.20;;;1.75;;
26953;SDS011;14508;50.924;11.600;2022-07-22T08:14:25;3.15;;;1.42;;
26953;SDS011;14508;50.924;11.600;2022-07-22T08:17:14;2.25;;;1.85;;
26953;SDS011;14508;50.924;11.600;2022-07-22T08:19:41;2.10;;;1.83;;
26953;SDS011;14508;50.924;11.600;2022-07-22T08:27:06;2.00;;;1.70;;
26953;SDS011;14508;50.924;11.600;2022-07-22T08:29:32;4.50;;;1.52;;
26953;SDS011;14508;50.924;11.600;2022-07-22T08:31:58;2.03;;;1.50;;
26953;SDS011;14508;50.924;11.600;2022-07-22T08:34:25;4.22;;;1.98;;
26953;SDS011;14508;50.924;11.600;2022-07-22T08:36:52;3.60;;;1.88;;
26953;SDS011;14508;50.924;11.600;2022-07-22T08:39:18;3.63;;;1.80;;
26953;SDS011;14508;50.924;11.600;2022-07-22T08:41:45;2.83;;;1.67;;
26953;SDS011;14508;50.924;11.600;2022-07-22T08:44:13;2.17;;;1.45;;
26953;SDS011;14508;50.924;11.600;2022-07-22T08:46:43;1.90;;;1.70;;
26953;SDS011;14508;50.924;11.600;2022-07-22T08:49:19;2.15;;;1.80;;
26953;SDS011;14508;50.924;11.600;2022-07-22T08:51:53;2.00;;;1.50;;
26953;SDS011;14508;50.924;11.600;2022-07-22T08:54:23;5.22;;;1.90;;
26953;SDS011;14508;50.924;11.600;2022-07-22T08:56:51;1.63;;;1.52;;
26953;SDS011;14508;50.924;11.600;2022-07-22T08:59:21;2.28;;;1.55;;
26953;SDS011;14508;50.924;11.600;2022-07-22T09:02:01;2.90;;;1.52;;
26953;SDS011;14508;50.924;11.600;2022-07-22T09:04:29;1.92;;;1.40;;
26953;SDS011;14508;50.924;11.600;2022-07-22T09:06:57;3.05;;;1.77;;
26953;SDS011;14508;50.924;11.600;2022-07-22T09:09:28;2.38;;;1.60;;
26953;SDS011;14508;50.924;11.600;2022-07-22T09:12:15;3.70;;;1.45;;
26953;SDS011;14508;50.924;11.600;2022-07-22T09:15:11;2.47;;;1.30;;
26953;SDS011;14508;50.924;11.600;2022-07-22T09:17:50;3.05;;;1.42;;
26953;SDS011;14508;50.924;11.600;2022-07-22T09:20:22;3.05;;;1.50;;
26953;SDS011;14508;50.924;11.600;2022-07-22T09:23:09;2.05;;;1.50;;
26953;SDS011;14508;50.924;11.600;2022-07-22T09:25:39;2.88;;;1.38;;
26953;SDS011;14508;50.924;11.600;2022-07-22T09:28:22;1.73;;;1.63;;
26953;SDS011;14508;50.924;11.600;2022-07-22T09:31:10;2.67;;;1.27;;
26953;SDS011;14508;50.924;11.600;2022-07-22T09:33:52;2.20;;;1.80;;
26953;SDS011;14508;50.924;11.600;2022-07-22T09:36:21;2.00;;;1.65;;
26953;SDS011;14508;50.924;11.600;2022-07-22T09:38:50;3.10;;;1.98;;
26953;SDS011;14508;50.924;11.600;2022-07-22T09:41:17;4.32;;;1.80;;
26953;SDS011;14508;50.924;11.600;2022-07-22T09:43:44;2.03;;;1.52;;
26953;SDS011;14508;50.924;11.600;2022-07-22T09:46:12;2.33;;;1.45;;
26953;SDS011;14508;50.924;11.600;2022-07-22T09:48:59;3.65;;;1.70;;
26953;SDS011;14508;50.924;11.600;2022-07-22T09:51:42;1.63;;;1.52;;
26953;SDS011;14508;50.924;11.600;2022-07-22T09:54:13;2.85;;;1.80;;
26953;SDS011;14508;50.924;11.600;2022-07-22T09:56:40;11.73;;;2.33;;
26953;SDS011;14508;50.924;11.600;2022-07-22T09:59:07;1.60;;;1.45;;
26953;SDS011;14508;50.924;11.600;2022-07-22T10:01:41;2.17;;;1.30;;
26953;SDS011;14508;50.924;11.600;2022-07-22T10:04:08;2.38;;;1.50;;
26953;SDS011;14508;50.924;11.600;2022-07-22T10:06:39;8.60;;;1.77;;
26953;SDS011;14508;50.924;11.600;2022-07-22T10:09:14;2.17;;;1.50;;
26953;SDS011;14508;50.924;11.600;2022-07-22T10:11:43;1.75;;;1.60;;
26953;SDS011;14508;50.924;11.600;2022-07-22T10:14:13;2.45;;;1.40;;
26953;SDS011;14508;50.924;11.600;2022-07-22T10:16:44;2.15;;;1.52;;
26953;SDS011;14508;50.924;11.600;2022-07-22T10:19:11;1.80;;;1.70;;
26953;SDS011;14508;50.924;11.600;2022-07-22T10:21:39;2.08;;;1.85;;
26953;SDS011;14508;50.924;11.600;2022-07-22T10:24:07;2.95;;;1.35;;
26953;SDS011;14508;50.924;11.600;2022-07-22T10:26:45;2.88;;;1.80;;
26953;SDS011;14508;50.924;11.600;2022-07-22T10:29:26;4.40;;;1.90;;
26953;SDS011;14508;50.924;11.600;2022-07-22T10:37:55;1.60;;;1.50;;
26953;SDS011;14508;50.924;11.600;2022-07-22T10:40:25;2.90;;;1.60;;
26953;SDS011;14508;50.924;11.600;2022-07-22T10:43:03;2.40;;;2.00;;
26953;SDS011;14508;50.924;11.600;2022-07-22T10:45:32;2.25;;;1.40;;
26953;SDS011;14508;50.924;11.600;2022-07-22T10:48:02;3.60;;;1.60;;
26953;SDS011;14508;50.924;11.600;2022-07-22T10:50:39;6.00;;;1.58;;
26953;SDS011;14508;50.924;11.600;2022-07-22T10:53:09;8.15;;;2.13;;
26953;SDS011;14508;50.924;11.600;2022-07-22T10:55:37;4.15;;;1.80;;
26953;SDS011;14508;50.924;11.600;2022-07-22T11:01:11;4.55;;;2.03;;
26953;SDS011;14508;50.924;11.600;2022-07-22T11:03:41;2.80;;;2.10;;
26953;SDS011;14508;50.924;11.600;2022-07-22T11:06:20;2.08;;;1.75;;
26953;SDS011;14508;50.924;11.600;2022-07-22T11:08:49;2.42;;;1.92;;
26953;SDS011;14508;50.924;11.600;2022-07-22T11:11:18;3.13;;;2.22;;
26953;SDS011;14508;50.924;11.600;2022-07-22T11:13:56;3.42;;;2.20;;
26953;SDS011;14508;50.924;11.600;2022-07-22T11:16:23;4.20;;;2.10;;
26953;SDS011;14508;50.924;11.600;2022-07-22T11:18:54;2.97;;;2.30;;
26953;SDS011;14508;50.924;11.600;2022-07-22T11:21:25;2.60;;;1.80;;
26953;SDS011;14508;50.924;11.600;2022-07-22T11:23:54;5.75;;;2.00;;
26953;SDS011;14508;50.924;11.600;2022-07-22T11:26:24;2.47;;;2.03;;
26953;SDS011;14508;50.924;11.600;2022-07-22T11:28:52;2.60;;;2.10;;
26953;SDS011;14508;50.924;11.600;2022-07-22T11:31:19;5.47;;;2.33;;
26953;SDS011;14508;50.924;11.600;2022-07-22T11:33:46;5.60;;;2.20;;
26953;SDS011;14508;50.924;11.600;2022-07-22T11:36:14;7.03;;;2.70;;
26953;SDS011;14508;50.924;11.600;2022-07-22T11:38:42;6.20;;;2.60;;
26953;SDS011;14508;50.924;11.600;2022-07-22T11:41:10;5.38;;;2.47;;
26953;SDS011;14508;50.924;11.600;2022-07-22T11:43:37;5.40;;;2.65;;
26953;SDS011;14508;50.924;11.600;2022-07-22T11:46:05;3.47;;;2.42;;
26953;SDS011;14508;50.924;11.600;2022-07-22T11:48:31;7.88;;;2.90;;
26953;SDS011;14508;50.924;11.600;2022-07-22T11:50:59;5.63;;;2.53;;
26953;SDS011;14508;50.924;11.600;2022-07-22T11:53:28;4.82;;;2.72;;
26953;SDS011;14508;50.924;11.600;2022-07-22T11:55:56;7.20;;;2.80;;
26953;SDS011;14508;50.924;11.600;2022-07-22T11:58:33;5.03;;;3.20;;
26953;SDS011;14508;50.924;11.600;2022-07-22T12:01:05;3.00;;;2.70;;
26953;SDS011;14508;50.924;11.600;2022-07-22T12:03:34;6.82;;;2.75;;
26953;SDS011;14508;50.924;11.600;2022-07-22T12:06:03;4.25;;;2.78;;
26953;SDS011;14508;50.924;11.600;2022-07-22T12:08:33;3.60;;;2.63;;
26953;SDS011;14508;50.924;11.600;2022-07-22T12:11:05;3.33;;;2.40;;
26953;SDS011;14508;50.924;11.600;2022-07-22T12:13:32;5.60;;;2.42;;
26953;SDS011;14508;50.924;11.600;2022-07-22T12:15:58;3.00;;;2.70;;
26953;SDS011;14508;50.924;11.600;2022-07-22T12:18:26;2.65;;;2.42;;
26953;SDS011;14508;50.924;11.600;2022-07-22T12:20:54;3.38;;;2.63;;
26953;SDS011;14508;50.924;11.600;2022-07-22T12:23:22;6.45;;;2.78;;
26953;SDS011;14508;50.924;11.600;2022-07-22T12:25:53;7.03;;;2.65;;
26953;SDS011;14508;50.924;11.600;2022-07-22T12:28:22;5.10;;;2.22;;
26953;SDS011;14508;50.924;11.600;2022-07-22T12:30:50;3.50;;;2.30;;
26953;SDS011;14508;50.924;11.600;2022-07-22T12:33:19;3.13;;;2.53;;
26953;SDS011;14508;50.924;11.600;2022-07-22T12:35:57;3.58;;;2.60;;
26953;SDS011;14508;50.924;11.600;2022-07-22T12:38:25;2.60;;;2.40;;
26953;SDS011;14508;50.924;11.600;2022-07-22T12:40:53;5.13;;;2.60;;
26953;SDS011;14508;50.924;11.600;2022-07-22T12:43:23;5.05;;;3.08;;
26953;SDS011;14508;50.924;11.600;2022-07-22T12:45:51;4.45;;;2.85;;
26953;SDS011;14508;50.924;11.600;2022-07-22T12:48:18;5.15;;;3.10;;
26953;SDS011;14508;50.924;11.600;2022-07-22T12:50:53;10.10;;;2.88;;
26953;SDS011;14508;50.924;11.600;2022-07-22T12:53:22;3.95;;;2.53;;
26953;SDS011;14508;50.924;11.600;2022-07-22T12:55:50;7.20;;;3.25;;
26953;SDS011;14508;50.924;11.600;2022-07-22T12:58:21;3.05;;;2.75;;
26953;SDS011;14508;50.924;11.600;2022-07-22T13:00:50;3.72;;;3.00;;
26953;SDS011;14508;50.924;11.600;2022-07-22T13:03:18;5.30;;;2.65;;
26953;SDS011;14508;50.924;11.600;2022-07-22T13:05:47;3.15;;;2.85;;
26953;SDS011;14508;50.924;11.600;2022-07-22T13:08:14;5.13;;;2.80;;
26953;SDS011;14508;50.924;11.600;2022-07-22T13:10:41;5.18;;;3.17;;
26953;SDS011;14508;50.924;11.600;2022-07-22T13:13:07;5.78;;;2.85;;
26953;SDS011;14508;50.924;11.600;2022-07-22T13:15:35;8.30;;;2.75;;
26953;SDS011;14508;50.924;11.600;2022-07-22T13:18:03;7.07;;;2.78;;
26953;SDS011;14508;50.924;11.600;2022-07-22T13:20:30;3.10;;;2.80;;
26953;SDS011;14508;50.924;11.600;2022-07-22T13:22:57;3.75;;;2.58;;
26953;SDS011;14508;50.924;11.600;2022-07-22T13:25:24;6.95;;;3.00;;
26953;SDS011;14508;50.924;11.600;2022-07-22T13:27:51;7.35;;;2.95;;
26953;SDS011;14508;50.924;11.600;2022-07-22T13:30:18;3.75;;;2.42;;
26953;SDS011;14508;50.924;11.600;2022-07-22T13:32:46;9.07;;;2.92;;
26953;SDS011;14508;50.924;11.600;2022-07-22T13:35:13;2.90;;;2.60;;
26953;SDS011;14508;50.924;11.600;2022-07-22T13:37:40;4.15;;;2.72;;
26953;SDS011;14508;50.924;11.600;2022-07-22T13:40:07;3.88;;;2.67;;
26953;SDS011;14508;50.924;11.600;2022-07-22T13:42:34;4.10;;;3.13;;
26953;SDS011;14508;50.924;11.600;2022-07-22T13:45:01;3.47;;;3.17;;
26953;SDS011;14508;50.924;11.600;2022-07-22T13:47:29;5.03;;;3.08;;
26953;SDS011;14508;50.924;11.600;2022-07-22T13:49:57;3.47;;;3.08;;
26953;SDS011;14508;50.924;11.600;2022-07-22T13:52:24;4.25;;;2.88;;
26953;SDS011;14508;50.924;11.600;2022-07-22T13:54:51;4.47;;;2.78;;
26953;SDS011;14508;50.924;11.600;2022-07-22T13:57:18;7.00;;;3.28;;
26953;SDS011;14508;50.924;11.600;2022-07-22T13:59:45;5.20;;;2.92;;
26953;SDS011;14508;50.924;11.600;2022-07-22T14:02:12;6.38;;;3.00;;
26953;SDS011;14508;50.924;11.600;2022-07-22T14:04:39;6.93;;;2.65;;
26953;SDS011;14508;50.924;11.600;2022-07-22T14:07:07;6.32;;;2.95;;
26953;SDS011;14508;50.924;11.600;2022-07-22T14:09:34;3.75;;;2.65;;
26953;SDS011;14508;50.924;11.600;2022-07-22T14:12:00;4.28;;;2.78;;
26953;SDS011;14508;50.924;11.600;2022-07-22T14:14:28;4.95;;;3.03;;
26953;SDS011;14508;50.924;11.600;2022-07-22T14:16:54;5.65;;;3.08;;
26953;SDS011;14508;50.924;11.600;2022-07-22T14:19:21;4.50;;;2.83;;
26953;SDS011;14508;50.924;11.600;2022-07-22T14:21:48;3.65;;;2.90;;
26953;SDS011;14508;50.924;11.600;2022-07-22T14:24:16;2.97;;;2.67;;
26953;SDS011;14508;50.924;11.600;2022-07-22T14:26:43;7.18;;;2.60;;
26953;SDS011;14508;50.924;11.600;2022-07-22T14:29:10;4.00;;;2.92;;
26953;SDS011;14508;50.924;11.600;2022-07-22T14:31:36;8.02;;;3.05;;
26953;SDS011;14508;50.924;11.600;2022-07-22T14:34:03;6.60;;;2.58;;
26953;SDS011;14508;50.924;11.600;2022-07-22T14:36:30;9.95;;;4.00;;
26953;SDS011;14508;50.924;11.600;2022-07-22T14:38:57;5.85;;;3.03;;
26953;SDS011;14508;50.924;11.600;2022-07-22T14:41:25;4.40;;;3.20;;
26953;SDS011;14508;50.924;11.600;2022-07-22T14:43:52;3.80;;;3.35;;
26953;SDS011;14508;50.924;11.600;2022-07-22T14:46:19;5.00;;;3.45;;
26953;SDS011;14508;50.924;11.600;2022-07-22T14:48:45;3.45;;;3.15;;
26953;SDS011;14508;50.924;11.600;2022-07-22T14:51:17;4.13;;;2.85;;
26953;SDS011;14508;50.924;11.600;2022-07-22T14:53:44;8.27;;;3.40;;
26953;SDS011;14508;50.924;11.600;2022-07-22T14:56:11;4.18;;;3.60;;
26953;SDS011;14508;50.924;11.600;2022-07-22T14:58:39;4.60;;;3.45;;
26953;SDS011;14508;50.924;11.600;2022-07-22T15:01:06;5.30;;;2.80;;
26953;SDS011;14508;50.924;11.600;2022-07-22T15:03:33;8.55;;;2.90;;
26953;SDS011;14508;50.924;11.600;2022-07-22T15:06:00;3.25;;;2.90;;
26953;SDS011;14508;50.924;11.600;2022-07-22T15:08:26;5.28;;;3.25;;
26953;SDS011;14508;50.924;11.600;2022-07-22T15:10:53;5.13;;;2.88;;
26953;SDS011;14508;50.924;11.600;2022-07-22T15:13:20;3.85;;;3.05;;
26953;SDS011;14508;50.924;11.600;2022-07-22T15:15:48;6.22;;;3.25;;
26953;SDS011;14508;50.924;11.600;2022-07-22T15:18:15;7.10;;;3.10;;
26953;SDS011;14508;50.924;11.600;2022-07-22T15:20:41;6.40;;;3.50;;
26953;SDS011;14508;50.924;11.600;2022-07-22T15:23:08;9.93;;;3.35;;
26953;SDS011;14508;50.924;11.600;2022-07-22T15:25:35;3.92;;;3.25;;
26953;SDS011;14508;50.924;11.600;2022-07-22T15:28:03;8.55;;;3.47;;
26953;SDS011;14508;50.924;11.600;2022-07-22T15:30:31;3.53;;;2.83;;
26953;SDS011;14508;50.924;11.600;2022-07-22T15:33:00;5.28;;;2.92;;
26953;SDS011;14508;50.924;11.600;2022-07-22T15:35:26;8.40;;;3.25;;